sensor_id;sensor_type;location;lat;lon;timestamp;temperature;humidity
53844;DHT22;39744;53.314;5.710;2022-11-20T00:01:09;0.80;99.90
53844;DHT22;39744;53.314;5.710;2022-11-20T00:03:35;0.80;99.90
53844;DHT22;39744;53.314;5.710;2022-11-20T00:06:03;0.80;99.90
53844;DHT22;39744;53.314;5.710;2022-11-20T00:08:28;0.70;99.90
53844;DHT22;39744;53.314;5.710;2022-11-20T00:10:54;0.70;99.90
53844;DHT22;39744;53.314;5.710;2022-11-20T00:13:20;0.70;99.90
53844;DHT22;39744;53.314;5.710;2022-11-20T00:15:45;0.60;99.90
53844;DHT22;39744;53.314;5.710;2022-11-20T00:18:11;0.70;99.90
53844;DHT22;39744;53.314;5.710;2022-11-20T00:20:37;0.70;99.90
53844;DHT22;39744;53.314;5.710;2022-11-20T00:23:02;0.70;99.90
53844;DHT22;39744;53.314;5.710;2022-11-20T00:25:28;0.70;99.90
53844;DHT22;39744;53.314;5.710;2022-11-20T00:27:54;0.70;99.90
53844;DHT22;39744;53.314;5.710;2022-11-20T00:30:19;0.70;99.90
53844;DHT22;39744;53.314;5.710;2022-11-20T00:32:45;0.70;99.90
53844;DHT22;39744;53.314;5.710;2022-11-20T00:35:10;0.70;99.90
53844;DHT22;39744;53.314;5.710;2022-11-20T00:37:36;0.60;99.90
53844;DHT22;39744;53.314;5.710;2022-11-20T00:40:02;0.60;99.90
53844;DHT22;39744;53.314;5.710;2022-11-20T00:42:27;0.60;99.90
53844;DHT22;39744;53.314;5.710;2022-11-20T00:44:53;0.60;99.90
53844;DHT22;39744;53.314;5.710;2022-11-20T00:47:18;0.60;99.90
53844;DHT22;39744;53.314;5.710;2022-11-20T00:49:44;0.60;99.90
53844;DHT22;39744;53.314;5.710;2022-11-20T00:52:10;0.60;99.90
53844;DHT22;39744;53.314;5.710;2022-11-20T00:54:35;0.60;99.90
53844;DHT22;39744;53.314;5.710;2022-11-20T00:57:01;0.60;99.90
53844;DHT22;39744;53.314;5.710;2022-11-20T00:59:27;0.60;99.90
53844;DHT22;39744;53.314;5.710;2022-11-20T01:01:52;0.60;99.90
53844;DHT22;39744;53.314;5.710;2022-11-20T01:04:18;0.60;99.90
53844;DHT22;39744;53.314;5.710;2022-11-20T01:06:44;0.60;99.90
53844;DHT22;39744;53.314;5.710;2022-11-20T01:09:12;0.60;99.90
53844;DHT22;39744;53.314;5.710;2022-11-20T01:11:43;0.60;99.90
53844;DHT22;39744;53.314;5.710;2022-11-20T01:14:12;0.60;99.90
53844;DHT22;39744;53.314;5.710;2022-11-20T01:16:44;0.60;99.90
53844;DHT22;39744;53.314;5.710;2022-11-20T01:19:16;0.60;99.90
53844;DHT22;39744;53.314;5.710;2022-11-20T01:21:43;0.60;99.90
53844;DHT22;39744;53.314;5.710;2022-11-20T01:24:15;0.70;99.90
53844;DHT22;39744;53.314;5.710;2022-11-20T01:26:42;0.70;99.90
53844;DHT22;39744;53.314;5.710;2022-11-20T01:29:14;0.70;99.90
53844;DHT22;39744;53.314;5.710;2022-11-20T01:31:40;0.70;99.90
53844;DHT22;39744;53.314;5.710;2022-11-20T01:34:13;0.80;99.90
53844;DHT22;39744;53.314;5.710;2022-11-20T01:36:40;0.80;99.90
53844;DHT22;39744;53.314;5.710;2022-11-20T01:39:15;0.90;99.90
53844;DHT22;39744;53.314;5.710;2022-11-20T01:41:42;0.90;99.90
53844;DHT22;39744;53.314;5.710;2022-11-20T01:47:25;0.90;99.90
53844;DHT22;39744;53.314;5.710;2022-11-20T01:50:01;0.90;99.90
53844;DHT22;39744;53.314;5.710;2022-11-20T01:52:36;0.90;99.90
53844;DHT22;39744;53.314;5.710;2022-11-20T01:55:13;0.90;99.90
53844;DHT22;39744;53.314;5.710;2022-11-20T01:57:40;0.90;99.90
53844;DHT22;39744;53.314;5.710;2022-11-20T02:00:09;0.90;99.90
53844;DHT22;39744;53.314;5.710;2022-11-20T02:02:36;0.90;99.90
53844;DHT22;39744;53.314;5.710;2022-11-20T02:05:19;1.00;99.90
53844;DHT22;39744;53.314;5.710;2022-11-20T02:07:47;1.00;99.90
53844;DHT22;39744;53.314;5.710;2022-11-20T02:10:13;1.00;99.90
53844;DHT22;39744;53.314;5.710;2022-11-20T02:12:39;1.00;99.90
53844;DHT22;39744;53.314;5.710;2022-11-20T02:15:24;1.00;99.90
53844;DHT22;39744;53.314;5.710;2022-11-20T02:17:49;1.00;99.90
53844;DHT22;39744;53.314;5.710;2022-11-20T02:20:15;1.00;99.90
53844;DHT22;39744;53.314;5.710;2022-11-20T02:22:53;1.00;99.90
53844;DHT22;39744;53.314;5.710;2022-11-20T02:25:20;1.00;99.90
53844;DHT22;39744;53.314;5.710;2022-11-20T02:27:46;1.10;99.90
53844;DHT22;39744;53.314;5.710;2022-11-20T02:30:13;1.10;99.90
53844;DHT22;39744;53.314;5.710;2022-11-20T02:32:39;1.10;99.90
53844;DHT22;39744;53.314;5.710;2022-11-20T02:37:53;1.00;99.90
53844;DHT22;39744;53.314;5.710;2022-11-20T02:40:20;1.00;99.90
53844;DHT22;39744;53.314;5.710;2022-11-20T02:42:45;1.00;99.90
53844;DHT22;39744;53.314;5.710;2022-11-20T02:45:11;1.10;99.90
53844;DHT22;39744;53.314;5.710;2022-11-20T02:47:37;1.00;99.90
53844;DHT22;39744;53.314;5.710;2022-11-20T02:50:04;1.10;99.90
53844;DHT22;39744;53.314;5.710;2022-11-20T02:52:30;1.10;99.90
53844;DHT22;39744;53.314;5.710;2022-11-20T02:54:56;1.10;99.90
53844;DHT22;39744;53.314;5.710;2022-11-20T02:57:22;1.00;99.90
53844;DHT22;39744;53.314;5.710;2022-11-20T02:59:47;1.00;99.90
53844;DHT22;39744;53.314;5.710;2022-11-20T03:02:13;1.00;99.90
53844;DHT22;39744;53.314;5.710;2022-11-20T03:04:38;1.10;99.90
53844;DHT22;39744;53.314;5.710;2022-11-20T03:07:04;1.00;99.90
53844;DHT22;39744;53.314;5.710;2022-11-20T03:09:30;1.00;99.90
53844;DHT22;39744;53.314;5.710;2022-11-20T03:11:56;1.00;99.90
53844;DHT22;39744;53.314;5.710;2022-11-20T03:14:21;1.00;99.90
53844;DHT22;39744;53.314;5.710;2022-11-20T03:16:47;1.00;99.90
53844;DHT22;39744;53.314;5.710;2022-11-20T03:19:13;1.00;99.90
53844;DHT22;39744;53.314;5.710;2022-11-20T03:21:39;1.00;99.90
53844;DHT22;39744;53.314;5.710;2022-11-20T03:24:04;0.90;99.90
53844;DHT22;39744;53.314;5.710;2022-11-20T03:26:30;0.90;99.90
53844;DHT22;39744;53.314;5.710;2022-11-20T03:28:58;0.90;99.90
53844;DHT22;39744;53.314;5.710;2022-11-20T03:31:35;0.90;99.90
53844;DHT22;39744;53.314;5.710;2022-11-20T03:34:02;0.90;99.90
53844;DHT22;39744;53.314;5.710;2022-11-20T03:36:28;0.90;99.90
53844;DHT22;39744;53.314;5.710;2022-11-20T03:38:55;0.90;99.90
53844;DHT22;39744;53.314;5.710;2022-11-20T03:41:24;0.80;99.90
53844;DHT22;39744;53.314;5.710;2022-11-20T03:43:51;0.80;99.90
53844;DHT22;39744;53.314;5.710;2022-11-20T03:46:17;0.80;99.90
53844;DHT22;39744;53.314;5.710;2022-11-20T03:48:43;0.80;99.90
53844;DHT22;39744;53.314;5.710;2022-11-20T03:51:10;0.80;99.90
53844;DHT22;39744;53.314;5.710;2022-11-20T03:53:37;0.70;99.90
53844;DHT22;39744;53.314;5.710;2022-11-20T03:56:03;0.70;99.90
53844;DHT22;39744;53.314;5.710;2022-11-20T03:58:29;0.70;99.90
53844;DHT22;39744;53.314;5.710;2022-11-20T04:00:54;0.70;99.90
53844;DHT22;39744;53.314;5.710;2022-11-20T04:03:20;0.60;99.90
53844;DHT22;39744;53.314;5.710;2022-11-20T04:05:45;0.60;99.90
53844;DHT22;39744;53.314;5.710;2022-11-20T04:08:11;0.60;99.90
53844;DHT22;39744;53.314;5.710;2022-11-20T04:10:37;0.60;99.90
53844;DHT22;39744;53.314;5.710;2022-11-20T04:13:03;0.60;99.90
53844;DHT22;39744;53.314;5.710;2022-11-20T04:15:29;0.50;99.90
53844;DHT22;39744;53.314;5.710;2022-11-20T04:17:54;0.50;99.90
53844;DHT22;39744;53.314;5.710;2022-11-20T04:20:20;0.50;99.90
53844;DHT22;39744;53.314;5.710;2022-11-20T04:22:46;0.50;99.90
53844;DHT22;39744;53.314;5.710;2022-11-20T04:25:11;0.50;99.90
53844;DHT22;39744;53.314;5.710;2022-11-20T04:27:37;0.40;99.90
53844;DHT22;39744;53.314;5.710;2022-11-20T04:30:03;0.40;99.90
53844;DHT22;39744;53.314;5.710;2022-11-20T04:32:28;0.40;99.90
53844;DHT22;39744;53.314;5.710;2022-11-20T04:34:54;0.30;99.90
53844;DHT22;39744;53.314;5.710;2022-11-20T04:37:20;0.30;99.90
53844;DHT22;39744;53.314;5.710;2022-11-20T04:39:45;0.20;99.90
53844;DHT22;39744;53.314;5.710;2022-11-20T04:42:11;0.20;99.90
53844;DHT22;39744;53.314;5.710;2022-11-20T04:44:54;0.20;99.90
53844;DHT22;39744;53.314;5.710;2022-11-20T04:47:20;0.10;99.90
53844;DHT22;39744;53.314;5.710;2022-11-20T04:49:46;0.10;99.90
53844;DHT22;39744;53.314;5.710;2022-11-20T04:52:12;0.00;99.90
53844;DHT22;39744;53.314;5.710;2022-11-20T04:54:37;0.10;99.90
53844;DHT22;39744;53.314;5.710;2022-11-20T04:57:03;0.00;99.90
53844;DHT22;39744;53.314;5.710;2022-11-20T04:59:29;0.00;99.90
53844;DHT22;39744;53.314;5.710;2022-11-20T05:01:54;0.00;99.90
53844;DHT22;39744;53.314;5.710;2022-11-20T05:04:20;0.00;99.90
53844;DHT22;39744;53.314;5.710;2022-11-20T05:06:45;0.00;99.90
53844;DHT22;39744;53.314;5.710;2022-11-20T05:09:12;0.00;99.90
53844;DHT22;39744;53.314;5.710;2022-11-20T05:11:38;0.00;99.90
53844;DHT22;39744;53.314;5.710;2022-11-20T05:14:04;0.00;99.90
53844;DHT22;39744;53.314;5.710;2022-11-20T05:16:29;0.10;99.90
53844;DHT22;39744;53.314;5.710;2022-11-20T05:18:55;0.10;99.90
53844;DHT22;39744;53.314;5.710;2022-11-20T05:21:21;0.10;99.90
53844;DHT22;39744;53.314;5.710;2022-11-20T05:23:47;0.10;99.90
53844;DHT22;39744;53.314;5.710;2022-11-20T05:26:16;0.20;99.90
53844;DHT22;39744;53.314;5.710;2022-11-20T05:28:42;0.20;99.90
53844;DHT22;39744;53.314;5.710;2022-11-20T05:31:13;0.20;99.90
53844;DHT22;39744;53.314;5.710;2022-11-20T05:33:43;0.20;99.90
53844;DHT22;39744;53.314;5.710;2022-11-20T05:36:10;0.30;99.90
53844;DHT22;39744;53.314;5.710;2022-11-20T05:38:36;0.30;99.90
53844;DHT22;39744;53.314;5.710;2022-11-20T05:41:10;0.30;99.90
53844;DHT22;39744;53.314;5.710;2022-11-20T05:43:37;0.30;99.90
53844;DHT22;39744;53.314;5.710;2022-11-20T05:46:04;0.30;99.90
53844;DHT22;39744;53.314;5.710;2022-11-20T05:48:31;0.30;99.90
53844;DHT22;39744;53.314;5.710;2022-11-20T05:50:58;0.30;99.90
53844;DHT22;39744;53.314;5.710;2022-11-20T05:53:24;0.40;99.90
53844;DHT22;39744;53.314;5.710;2022-11-20T05:56:04;0.30;99.90
53844;DHT22;39744;53.314;5.710;2022-11-20T05:58:32;0.30;99.90
53844;DHT22;39744;53.314;5.710;2022-11-20T06:01:06;0.30;99.90
53844;DHT22;39744;53.314;5.710;2022-11-20T06:03:32;0.20;99.90
53844;DHT22;39744;53.314;5.710;2022-11-20T06:06:00;0.20;99.90
53844;DHT22;39744;53.314;5.710;2022-11-20T06:08:26;0.20;99.90
53844;DHT22;39744;53.314;5.710;2022-11-20T06:10:51;0.20;99.90
53844;DHT22;39744;53.314;5.710;2022-11-20T06:13:17;0.20;99.90
53844;DHT22;39744;53.314;5.710;2022-11-20T06:15:48;0.20;99.90
53844;DHT22;39744;53.314;5.710;2022-11-20T06:18:14;0.20;99.90
53844;DHT22;39744;53.314;5.710;2022-11-20T06:20:39;0.30;99.90
53844;DHT22;39744;53.314;5.710;2022-11-20T06:23:05;0.30;99.90
53844;DHT22;39744;53.314;5.710;2022-11-20T06:25:31;0.30;99.90
53844;DHT22;39744;53.314;5.710;2022-11-20T06:27:56;0.30;99.90
53844;DHT22;39744;53.314;5.710;2022-11-20T06:30:22;0.40;99.90
53844;DHT22;39744;53.314;5.710;2022-11-20T06:32:47;0.40;99.90
53844;DHT22;39744;53.314;5.710;2022-11-20T06:35:13;0.40;99.90
53844;DHT22;39744;53.314;5.710;2022-11-20T06:37:38;0.40;99.90
53844;DHT22;39744;53.314;5.710;2022-11-20T06:40:05;0.40;99.90
53844;DHT22;39744;53.314;5.710;2022-11-20T06:42:30;0.40;99.90
53844;DHT22;39744;53.314;5.710;2022-11-20T06:44:56;0.40;99.90
53844;DHT22;39744;53.314;5.710;2022-11-20T06:47:21;0.50;99.90
53844;DHT22;39744;53.314;5.710;2022-11-20T06:49:47;0.50;99.90
53844;DHT22;39744;53.314;5.710;2022-11-20T06:52:12;0.60;99.90
53844;DHT22;39744;53.314;5.710;2022-11-20T06:54:38;0.60;99.90
53844;DHT22;39744;53.314;5.710;2022-11-20T06:57:04;0.60;99.90
53844;DHT22;39744;53.314;5.710;2022-11-20T06:59:29;0.60;99.90
53844;DHT22;39744;53.314;5.710;2022-11-20T07:01:55;0.60;99.90
53844;DHT22;39744;53.314;5.710;2022-11-20T07:04:21;0.60;99.90
53844;DHT22;39744;53.314;5.710;2022-11-20T07:06:46;0.60;99.90
53844;DHT22;39744;53.314;5.710;2022-11-20T07:09:12;0.70;99.90
53844;DHT22;39744;53.314;5.710;2022-11-20T07:11:37;0.70;99.90
53844;DHT22;39744;53.314;5.710;2022-11-20T07:14:03;0.60;99.90
53844;DHT22;39744;53.314;5.710;2022-11-20T07:16:28;0.60;99.90
53844;DHT22;39744;53.314;5.710;2022-11-20T07:18:54;0.50;99.90
53844;DHT22;39744;53.314;5.710;2022-11-20T07:21:20;0.40;99.90
53844;DHT22;39744;53.314;5.710;2022-11-20T07:23:46;0.40;99.90
53844;DHT22;39744;53.314;5.710;2022-11-20T07:26:11;0.40;99.90
53844;DHT22;39744;53.314;5.710;2022-11-20T07:28:37;0.30;99.90
53844;DHT22;39744;53.314;5.710;2022-11-20T07:31:03;0.20;99.90
53844;DHT22;39744;53.314;5.710;2022-11-20T07:33:31;0.20;99.90
53844;DHT22;39744;53.314;5.710;2022-11-20T07:35:59;0.20;99.90
53844;DHT22;39744;53.314;5.710;2022-11-20T07:38:25;0.20;99.90
53844;DHT22;39744;53.314;5.710;2022-11-20T07:40:54;0.10;99.90
53844;DHT22;39744;53.314;5.710;2022-11-20T07:43:21;0.10;99.90
53844;DHT22;39744;53.314;5.710;2022-11-20T07:45:46;0.10;99.90
53844;DHT22;39744;53.314;5.710;2022-11-20T07:48:12;0.10;99.90
53844;DHT22;39744;53.314;5.710;2022-11-20T07:50:38;0.20;99.90
53844;DHT22;39744;53.314;5.710;2022-11-20T07:53:04;0.20;99.90
53844;DHT22;39744;53.314;5.710;2022-11-20T07:55:30;0.20;99.90
53844;DHT22;39744;53.314;5.710;2022-11-20T07:57:56;0.30;99.90
53844;DHT22;39744;53.314;5.710;2022-11-20T08:00:23;0.30;99.90
53844;DHT22;39744;53.314;5.710;2022-11-20T08:02:48;0.30;99.90
53844;DHT22;39744;53.314;5.710;2022-11-20T08:05:14;0.40;99.90
53844;DHT22;39744;53.314;5.710;2022-11-20T08:07:41;0.30;99.90
53844;DHT22;39744;53.314;5.710;2022-11-20T08:10:09;0.30;99.90
53844;DHT22;39744;53.314;5.710;2022-11-20T08:12:35;0.40;99.90
53844;DHT22;39744;53.314;5.710;2022-11-20T08:15:20;0.50;99.90
53844;DHT22;39744;53.314;5.710;2022-11-20T08:17:45;0.50;99.90
53844;DHT22;39744;53.314;5.710;2022-11-20T08:20:11;0.60;99.90
53844;DHT22;39744;53.314;5.710;2022-11-20T08:22:37;0.60;99.90
53844;DHT22;39744;53.314;5.710;2022-11-20T08:25:03;0.70;99.90
53844;DHT22;39744;53.314;5.710;2022-11-20T08:27:28;0.70;99.90
53844;DHT22;39744;53.314;5.710;2022-11-20T08:29:54;0.70;99.90
53844;DHT22;39744;53.314;5.710;2022-11-20T08:32:20;0.80;99.90
53844;DHT22;39744;53.314;5.710;2022-11-20T08:34:45;0.80;99.90
53844;DHT22;39744;53.314;5.710;2022-11-20T08:37:11;0.90;99.90
53844;DHT22;39744;53.314;5.710;2022-11-20T08:39:37;1.00;99.90
53844;DHT22;39744;53.314;5.710;2022-11-20T08:42:07;1.10;99.90
53844;DHT22;39744;53.314;5.710;2022-11-20T08:44:32;1.20;99.90
53844;DHT22;39744;53.314;5.710;2022-11-20T08:46:58;1.20;99.90
53844;DHT22;39744;53.314;5.710;2022-11-20T08:49:24;1.30;99.90
53844;DHT22;39744;53.314;5.710;2022-11-20T08:51:49;1.30;99.90
53844;DHT22;39744;53.314;5.710;2022-11-20T08:54:19;1.40;99.90
53844;DHT22;39744;53.314;5.710;2022-11-20T08:56:47;1.40;99.90
53844;DHT22;39744;53.314;5.710;2022-11-20T08:59:13;1.50;99.90
53844;DHT22;39744;53.314;5.710;2022-11-20T09:01:38;1.50;99.90
53844;DHT22;39744;53.314;5.710;2022-11-20T09:04:04;1.50;99.90
53844;DHT22;39744;53.314;5.710;2022-11-20T09:06:30;1.60;99.90
53844;DHT22;39744;53.314;5.710;2022-11-20T09:08:56;1.60;99.90
53844;DHT22;39744;53.314;5.710;2022-11-20T09:11:22;1.70;99.90
53844;DHT22;39744;53.314;5.710;2022-11-20T09:13:48;1.70;99.90
53844;DHT22;39744;53.314;5.710;2022-11-20T09:16:13;1.80;99.90
53844;DHT22;39744;53.314;5.710;2022-11-20T09:18:39;1.80;99.90
53844;DHT22;39744;53.314;5.710;2022-11-20T09:21:09;1.90;99.90
53844;DHT22;39744;53.314;5.710;2022-11-20T09:23:37;1.90;99.90
53844;DHT22;39744;53.314;5.710;2022-11-20T09:26:09;2.00;99.90
53844;DHT22;39744;53.314;5.710;2022-11-20T09:28:35;2.00;99.90
53844;DHT22;39744;53.314;5.710;2022-11-20T09:31:05;2.10;99.90
53844;DHT22;39744;53.314;5.710;2022-11-20T09:33:31;2.10;99.90
53844;DHT22;39744;53.314;5.710;2022-11-20T09:35:56;2.20;99.90
53844;DHT22;39744;53.314;5.710;2022-11-20T09:38:23;2.30;99.90
53844;DHT22;39744;53.314;5.710;2022-11-20T09:40:58;2.30;99.90
53844;DHT22;39744;53.314;5.710;2022-11-20T09:44:00;2.30;99.90
53844;DHT22;39744;53.314;5.710;2022-11-20T09:49:35;2.50;99.90
53844;DHT22;39744;53.314;5.710;2022-11-20T09:55:10;2.60;99.90
53844;DHT22;39744;53.314;5.710;2022-11-20T09:57:42;2.70;99.90
53844;DHT22;39744;53.314;5.710;2022-11-20T10:00:12;2.70;99.90
53844;DHT22;39744;53.314;5.710;2022-11-20T10:02:47;2.80;99.90
53844;DHT22;39744;53.314;5.710;2022-11-20T10:05:37;3.00;99.90
53844;DHT22;39744;53.314;5.710;2022-11-20T10:08:24;3.00;99.90
53844;DHT22;39744;53.314;5.710;2022-11-20T10:11:04;3.10;99.90
53844;DHT22;39744;53.314;5.710;2022-11-20T10:23:57;3.40;99.90
53844;DHT22;39744;53.314;5.710;2022-11-20T10:26:44;3.40;99.90
53844;DHT22;39744;53.314;5.710;2022-11-20T10:29:19;3.50;99.90
53844;DHT22;39744;53.314;5.710;2022-11-20T10:31:54;3.50;99.90
53844;DHT22;39744;53.314;5.710;2022-11-20T10:34:26;3.50;99.90
53844;DHT22;39744;53.314;5.710;2022-11-20T10:36:58;3.50;99.90
53844;DHT22;39744;53.314;5.710;2022-11-20T10:42:17;3.50;99.90
53844;DHT22;39744;53.314;5.710;2022-11-20T10:44:51;3.50;99.90
53844;DHT22;39744;53.314;5.710;2022-11-20T10:47:28;3.50;99.90
53844;DHT22;39744;53.314;5.710;2022-11-20T10:49:57;3.50;99.90
53844;DHT22;39744;53.314;5.710;2022-11-20T10:57:50;3.50;99.90
53844;DHT22;39744;53.314;5.710;2022-11-20T11:00:17;3.50;99.90
53844;DHT22;39744;53.314;5.710;2022-11-20T11:02:47;3.50;99.90
53844;DHT22;39744;53.314;5.710;2022-11-20T11:07:58;3.60;99.90
53844;DHT22;39744;53.314;5.710;2022-11-20T11:10:35;3.60;99.90
53844;DHT22;39744;53.314;5.710;2022-11-20T11:13:02;3.70;99.90
53844;DHT22;39744;53.314;5.710;2022-11-20T11:15:38;3.70;99.90
53844;DHT22;39744;53.314;5.710;2022-11-20T11:18:04;3.70;99.90
53844;DHT22;39744;53.314;5.710;2022-11-20T11:20:30;3.70;99.90
53844;DHT22;39744;53.314;5.710;2022-11-20T11:22:59;3.70;99.90
53844;DHT22;39744;53.314;5.710;2022-11-20T11:25:36;3.70;99.90
53844;DHT22;39744;53.314;5.710;2022-11-20T11:28:03;3.70;99.90
53844;DHT22;39744;53.314;5.710;2022-11-20T11:30:30;3.70;99.90
53844;DHT22;39744;53.314;5.710;2022-11-20T11:33:09;3.70;99.90
53844;DHT22;39744;53.314;5.710;2022-11-20T11:35:45;3.80;99.90
53844;DHT22;39744;53.314;5.710;2022-11-20T11:38:15;3.80;99.90
53844;DHT22;39744;53.314;5.710;2022-11-20T11:40:41;3.80;99.90
53844;DHT22;39744;53.314;5.710;2022-11-20T11:43:18;3.80;99.90
53844;DHT22;39744;53.314;5.710;2022-11-20T11:51:45;4.00;99.90
53844;DHT22;39744;53.314;5.710;2022-11-20T11:54:39;4.00;99.90
53844;DHT22;39744;53.314;5.710;2022-11-20T11:57:41;4.00;99.90
53844;DHT22;39744;53.314;5.710;2022-11-20T12:00:13;4.00;99.90
53844;DHT22;39744;53.314;5.710;2022-11-20T12:08:17;3.90;99.90
53844;DHT22;39744;53.314;5.710;2022-11-20T12:16:01;3.80;99.90
53844;DHT22;39744;53.314;5.710;2022-11-20T12:18:28;3.80;99.90
53844;DHT22;39744;53.314;5.710;2022-11-20T12:21:04;3.80;99.90
53844;DHT22;39744;53.314;5.710;2022-11-20T12:32:07;3.90;99.90
53844;DHT22;39744;53.314;5.710;2022-11-20T12:34:57;3.90;99.90
53844;DHT22;39744;53.314;5.710;2022-11-20T12:40:27;3.70;99.90
53844;DHT22;39744;53.314;5.710;2022-11-20T12:48:53;3.60;99.90
53844;DHT22;39744;53.314;5.710;2022-11-20T12:59:52;3.40;99.90
53844;DHT22;39744;53.314;5.710;2022-11-20T13:05:37;3.30;99.90
53844;DHT22;39744;53.314;5.710;2022-11-20T13:08:15;3.30;99.90
53844;DHT22;39744;53.314;5.710;2022-11-20T13:13:47;3.20;99.90
53844;DHT22;39744;53.314;5.710;2022-11-20T13:16:17;3.20;99.90
53844;DHT22;39744;53.314;5.710;2022-11-20T13:18:46;3.20;99.90
53844;DHT22;39744;53.314;5.710;2022-11-20T13:21:34;3.10;99.90
53844;DHT22;39744;53.314;5.710;2022-11-20T13:24:20;3.10;99.90
53844;DHT22;39744;53.314;5.710;2022-11-20T13:29:35;3.10;99.90
53844;DHT22;39744;53.314;5.710;2022-11-20T13:32:18;3.10;99.90
53844;DHT22;39744;53.314;5.710;2022-11-20T13:34:59;3.10;99.90
53844;DHT22;39744;53.314;5.710;2022-11-20T13:40:19;3.10;99.90
53844;DHT22;39744;53.314;5.710;2022-11-20T13:42:55;3.10;99.90
53844;DHT22;39744;53.314;5.710;2022-11-20T13:45:24;3.00;99.90
53844;DHT22;39744;53.314;5.710;2022-11-20T13:47:51;3.10;99.90
53844;DHT22;39744;53.314;5.710;2022-11-20T13:50:17;3.10;99.90
53844;DHT22;39744;53.314;5.710;2022-11-20T13:55:59;3.00;99.90
53844;DHT22;39744;53.314;5.710;2022-11-20T14:01:05;3.00;99.90
53844;DHT22;39744;53.314;5.710;2022-11-20T14:03:34;2.90;99.90
53844;DHT22;39744;53.314;5.710;2022-11-20T14:06:05;2.90;99.90
53844;DHT22;39744;53.314;5.710;2022-11-20T14:08:40;2.80;99.90
53844;DHT22;39744;53.314;5.710;2022-11-20T14:11:20;2.90;99.90
53844;DHT22;39744;53.314;5.710;2022-11-20T14:13:55;2.90;99.90
53844;DHT22;39744;53.314;5.710;2022-11-20T14:16:22;2.80;99.90
53844;DHT22;39744;53.314;5.710;2022-11-20T14:18:48;2.80;99.90
53844;DHT22;39744;53.314;5.710;2022-11-20T14:21:25;2.70;99.90
53844;DHT22;39744;53.314;5.710;2022-11-20T14:24:24;2.70;99.90
53844;DHT22;39744;53.314;5.710;2022-11-20T14:26:50;2.60;99.90
53844;DHT22;39744;53.314;5.710;2022-11-20T14:29:18;2.60;99.90
53844;DHT22;39744;53.314;5.710;2022-11-20T14:31:52;2.60;99.90
53844;DHT22;39744;53.314;5.710;2022-11-20T14:34:24;2.60;99.90
53844;DHT22;39744;53.314;5.710;2022-11-20T14:37:04;2.60;99.90
53844;DHT22;39744;53.314;5.710;2022-11-20T14:39:36;2.50;99.90
53844;DHT22;39744;53.314;5.710;2022-11-20T14:42:15;2.50;99.90
53844;DHT22;39744;53.314;5.710;2022-11-20T14:44:42;2.50;99.90
53844;DHT22;39744;53.314;5.710;2022-11-20T14:47:11;2.50;99.90
53844;DHT22;39744;53.314;5.710;2022-11-20T14:49:38;2.50;99.90
53844;DHT22;39744;53.314;5.710;2022-11-20T14:52:20;2.40;99.90
53844;DHT22;39744;53.314;5.710;2022-11-20T14:54:48;2.50;99.90
53844;DHT22;39744;53.314;5.710;2022-11-20T14:57:31;2.50;99.90
53844;DHT22;39744;53.314;5.710;2022-11-20T15:00:04;2.40;99.90
53844;DHT22;39744;53.314;5.710;2022-11-20T15:02:31;2.40;99.90
53844;DHT22;39744;53.314;5.710;2022-11-20T15:04:58;2.40;99.90
53844;DHT22;39744;53.314;5.710;2022-11-20T15:07:26;2.40;99.90
53844;DHT22;39744;53.314;5.710;2022-11-20T15:10:32;2.40;99.90
53844;DHT22;39744;53.314;5.710;2022-11-20T15:13:12;2.40;99.90
53844;DHT22;39744;53.314;5.710;2022-11-20T15:15:46;2.40;99.90
53844;DHT22;39744;53.314;5.710;2022-11-20T15:18:15;2.40;99.90
53844;DHT22;39744;53.314;5.710;2022-11-20T15:20:42;2.40;99.90
53844;DHT22;39744;53.314;5.710;2022-11-20T15:23:13;2.40;99.90
53844;DHT22;39744;53.314;5.710;2022-11-20T15:25:39;2.40;99.90
53844;DHT22;39744;53.314;5.710;2022-11-20T15:30:55;2.40;99.90
53844;DHT22;39744;53.314;5.710;2022-11-20T15:33:22;2.40;99.90
53844;DHT22;39744;53.314;5.710;2022-11-20T15:35:47;2.40;99.90
53844;DHT22;39744;53.314;5.710;2022-11-20T15:38:14;2.30;99.90
53844;DHT22;39744;53.314;5.710;2022-11-20T15:40:39;2.30;99.90
53844;DHT22;39744;53.314;5.710;2022-11-20T15:43:05;2.40;99.90
53844;DHT22;39744;53.314;5.710;2022-11-20T15:45:46;2.40;99.90
53844;DHT22;39744;53.314;5.710;2022-11-20T15:48:20;2.40;99.90
53844;DHT22;39744;53.314;5.710;2022-11-20T15:50:59;2.30;99.90
53844;DHT22;39744;53.314;5.710;2022-11-20T15:53:29;2.30;99.90
53844;DHT22;39744;53.314;5.710;2022-11-20T15:55:55;2.30;99.90
53844;DHT22;39744;53.314;5.710;2022-11-20T15:58:21;2.30;99.90
53844;DHT22;39744;53.314;5.710;2022-11-20T16:00:48;2.30;99.90
53844;DHT22;39744;53.314;5.710;2022-11-20T16:03:15;2.30;99.90
53844;DHT22;39744;53.314;5.710;2022-11-20T16:05:41;2.30;99.90
53844;DHT22;39744;53.314;5.710;2022-11-20T16:08:07;2.30;99.90
53844;DHT22;39744;53.314;5.710;2022-11-20T16:10:33;2.30;99.90
53844;DHT22;39744;53.314;5.710;2022-11-20T16:12:58;2.30;99.90
53844;DHT22;39744;53.314;5.710;2022-11-20T16:15:50;2.30;99.90
53844;DHT22;39744;53.314;5.710;2022-11-20T16:18:20;2.20;99.90
53844;DHT22;39744;53.314;5.710;2022-11-20T16:20:48;2.20;99.90
53844;DHT22;39744;53.314;5.710;2022-11-20T16:23:15;2.20;99.90
53844;DHT22;39744;53.314;5.710;2022-11-20T16:25:42;2.20;99.90
53844;DHT22;39744;53.314;5.710;2022-11-20T16:28:08;2.20;99.90
53844;DHT22;39744;53.314;5.710;2022-11-20T16:30:33;2.20;99.90
53844;DHT22;39744;53.314;5.710;2022-11-20T16:33:00;2.20;99.90
53844;DHT22;39744;53.314;5.710;2022-11-20T16:35:30;2.20;99.90
53844;DHT22;39744;53.314;5.710;2022-11-20T16:37:57;2.20;99.90
53844;DHT22;39744;53.314;5.710;2022-11-20T16:40:24;2.20;99.90
53844;DHT22;39744;53.314;5.710;2022-11-20T16:42:50;2.20;99.90
53844;DHT22;39744;53.314;5.710;2022-11-20T16:45:17;2.20;99.90
53844;DHT22;39744;53.314;5.710;2022-11-20T16:47:43;2.20;99.90
53844;DHT22;39744;53.314;5.710;2022-11-20T16:50:09;2.20;99.90
53844;DHT22;39744;53.314;5.710;2022-11-20T16:52:34;2.20;99.90
53844;DHT22;39744;53.314;5.710;2022-11-20T16:55:00;2.10;99.90
53844;DHT22;39744;53.314;5.710;2022-11-20T16:57:30;2.20;99.90
53844;DHT22;39744;53.314;5.710;2022-11-20T17:00:00;2.20;99.90
53844;DHT22;39744;53.314;5.710;2022-11-20T17:02:26;2.20;99.90
53844;DHT22;39744;53.314;5.710;2022-11-20T17:04:53;2.10;99.90
53844;DHT22;39744;53.314;5.710;2022-11-20T17:07:19;2.10;99.90
53844;DHT22;39744;53.314;5.710;2022-11-20T17:09:45;2.10;99.90
53844;DHT22;39744;53.314;5.710;2022-11-20T17:12:10;2.10;99.90
53844;DHT22;39744;53.314;5.710;2022-11-20T17:14:36;2.10;99.90
53844;DHT22;39744;53.314;5.710;2022-11-20T17:17:02;2.10;99.90
53844;DHT22;39744;53.314;5.710;2022-11-20T17:19:27;2.10;99.90
53844;DHT22;39744;53.314;5.710;2022-11-20T17:21:53;2.10;99.90
53844;DHT22;39744;53.314;5.710;2022-11-20T17:24:20;2.10;99.90
53844;DHT22;39744;53.314;5.710;2022-11-20T17:26:47;2.10;99.90
53844;DHT22;39744;53.314;5.710;2022-11-20T17:29:18;2.10;99.90
53844;DHT22;39744;53.314;5.710;2022-11-20T17:31:48;2.10;99.90